Time;durP1;ratioP1;P1;durP2;ratioP2;P2;SDS_P1;SDS_P2;PMS_P1;PMS_P2;Temp;Humidity;BMP_temperature;BMP_pressure;BME280_temperature;BME280_humidity;BME280_pressure;Samples;Min_cycle;Max_cycle;Signal;HPM_P1;HPM_P2
2020/12/23 00:00:53;;;;;;;6.45;4.65;;;11.80;66.90;;;;;;5053300;28;20086;-71
2020/12/23 00:03:19;;;;;;;13.88;4.10;;;11.80;66.90;;;;;;5053558;28;20032;-71
2020/12/23 00:05:46;;;;;;;6.70;4.47;;;11.80;67.00;;;;;;5052216;28;20024;-71
2020/12/23 00:08:12;;;;;;;5.50;4.28;;;11.80;67.00;;;;;;5042029;28;20418;-71
2020/12/23 00:10:38;;;;;;;6.15;4.22;;;11.80;66.80;;;;;;5034228;28;20535;-71
2020/12/23 00:13:03;;;;;;;7.75;4.03;;;11.80;66.80;;;;;;5052922;28;20104;-71
2020/12/23 00:15:29;;;;;;;5.45;3.90;;;11.80;66.80;;;;;;5053530;28;20025;-71
2020/12/23 00:17:55;;;;;;;7.38;3.95;;;11.70;66.80;;;;;;5038872;28;20079;-71
2020/12/23 00:20:20;;;;;;;5.80;4.15;;;11.80;67.10;;;;;;5050679;28;20024;-71
2020/12/23 00:22:46;;;;;;;4.63;3.47;;;11.80;67.30;;;;;;5049629;28;20120;-71
2020/12/23 00:25:12;;;;;;;4.43;3.13;;;11.80;67.50;;;;;;5051634;28;20049;-71
2020/12/23 00:27:38;;;;;;;5.47;4.13;;;11.80;67.70;;;;;;5053109;28;20429;-71
2020/12/23 00:30:04;;;;;;;7.03;4.70;;;11.90;68.40;;;;;;5053279;28;20066;-71
2020/12/23 00:32:30;;;;;;;6.43;4.38;;;11.90;69.30;;;;;;5052660;28;20025;-71
2020/12/23 00:34:56;;;;;;;6.15;4.80;;;12.00;69.70;;;;;;5053222;28;20509;-71
2020/12/23 00:37:22;;;;;;;6.25;4.05;;;12.10;69.90;;;;;;5068542;28;20367;-71
2020/12/23 00:39:48;;;;;;;6.25;4.90;;;12.10;70.00;;;;;;5053167;28;20178;-71
2020/12/23 00:42:13;;;;;;;5.57;4.30;;;12.20;70.30;;;;;;5052782;28;20108;-71
2020/12/23 00:44:39;;;;;;;7.35;4.57;;;12.30;70.20;;;;;;5053023;28;20025;-71
2020/12/23 00:47:05;;;;;;;5.47;4.05;;;12.30;70.10;;;;;;5052834;28;20134;-71
2020/12/23 00:49:31;;;;;;;5.22;3.80;;;12.40;70.00;;;;;;5051485;28;20029;-71
2020/12/23 00:51:56;;;;;;;6.43;4.40;;;12.50;69.90;;;;;;5052637;28;20075;-72
2020/12/23 00:54:22;;;;;;;5.72;4.47;;;12.50;70.00;;;;;;5052917;28;20029;-71
2020/12/23 00:56:48;;;;;;;4.32;3.58;;;12.50;70.00;;;;;;5052848;28;20043;-71
2020/12/23 00:59:13;;;;;;;5.78;3.70;;;12.60;69.90;;;;;;5052845;28;20029;-71
2020/12/23 01:01:39;;;;;;;6.63;4.65;;;12.60;69.80;;;;;;5052347;28;20448;-71
2020/12/23 01:04:05;;;;;;;5.18;4.00;;;12.70;70.10;;;;;;5052497;28;20025;-72
2020/12/23 01:06:31;;;;;;;5.47;4.10;;;12.70;69.40;;;;;;5052763;28;20068;-71
2020/12/23 01:08:56;;;;;;;4.90;3.63;;;12.80;69.30;;;;;;5052705;28;20423;-71
2020/12/23 01:11:22;;;;;;;7.55;4.38;;;12.80;69.10;;;;;;5052432;28;20078;-71
2020/12/23 01:13:48;;;;;;;5.50;3.85;;;12.80;68.80;;;;;;5051323;28;20033;-71
2020/12/23 01:16:21;;;;;;;5.80;4.45;;;12.80;68.40;;;;;;5052505;28;20057;-71
2020/12/23 01:18:48;;;;;;;4.43;3.47;;;12.80;68.30;;;;;;5052652;28;20032;-71
2020/12/23 01:21:14;;;;;;;12.88;4.05;;;12.80;68.20;;;;;;5043340;28;20025;-71
2020/12/23 01:23:43;;;;;;;6.70;4.28;;;12.80;68.20;;;;;;5052249;28;20033;-71
2020/12/23 01:26:10;;;;;;;5.47;4.30;;;12.80;68.10;;;;;;5052316;28;20402;-71
2020/12/23 01:28:36;;;;;;;7.18;4.38;;;12.80;68.10;;;;;;5052512;28;20090;-72
2020/12/23 01:31:03;;;;;;;6.32;4.07;;;12.90;68.10;;;;;;5052260;28;20037;-71
2020/12/23 01:33:28;;;;;;;6.25;4.18;;;12.90;68.20;;;;;;5052286;28;20029;-71
2020/12/23 01:35:54;;;;;;;4.78;3.35;;;12.90;68.00;;;;;;5052398;28;20021;-71
2020/12/23 01:38:20;;;;;;;5.40;3.90;;;12.90;68.10;;;;;;5044448;28;20052;-71
2020/12/23 01:40:46;;;;;;;4.50;3.47;;;12.90;68.00;;;;;;5050861;28;20021;-71
2020/12/23 01:43:13;;;;;;;4.40;3.55;;;12.90;67.90;;;;;;5052238;28;20040;-71
2020/12/23 01:45:38;;;;;;;5.65;4.30;;;12.90;67.90;;;;;;5052258;28;20029;-71
2020/12/23 01:48:17;;;;;;;5.60;4.05;;;12.90;67.80;;;;;;5052313;28;20018;-71
2020/12/23 01:50:44;;;;;;;5.40;3.75;;;12.90;67.70;;;;;;5050778;28;20025;-71
2020/12/23 01:53:10;;;;;;;5.38;3.58;;;13.00;67.70;;;;;;5050986;28;20356;-71
2020/12/23 01:55:36;;;;;;;4.25;3.15;;;13.00;67.80;;;;;;5052235;28;20497;-71
2020/12/23 01:58:02;;;;;;;12.05;3.75;;;13.00;67.80;;;;;;5051508;28;20482;-71
2020/12/23 02:00:28;;;;;;;6.32;3.30;;;13.00;67.80;;;;;;5052201;28;20033;-71
2020/12/23 02:02:56;;;;;;;4.75;3.33;;;13.00;67.90;;;;;;5052129;28;20040;-71
2020/12/23 02:05:22;;;;;;;6.47;3.42;;;13.00;67.70;;;;;;5052138;28;20469;-71
2020/12/23 02:07:49;;;;;;;3.42;2.80;;;13.00;67.60;;;;;;5051817;28;20017;-71
2020/12/23 02:10:16;;;;;;;4.60;2.95;;;13.00;67.70;;;;;;5049880;28;20067;-71
2020/12/23 02:12:41;;;;;;;4.07;3.20;;;13.00;67.60;;;;;;5050921;28;20055;-71
2020/12/23 02:15:12;;;;;;;4.40;3.20;;;13.00;67.70;;;;;;5049051;28;20064;-71
2020/12/23 02:17:38;;;;;;;7.35;3.10;;;13.00;67.70;;;;;;5050562;28;20040;-71
2020/12/23 02:20:12;;;;;;;5.07;3.85;;;13.00;67.60;;;;;;5050398;28;20063;-71
2020/12/23 02:22:38;;;;;;;6.03;4.25;;;13.00;67.50;;;;;;5051945;28;20120;-71
2020/12/23 02:25:05;;;;;;;4.55;3.78;;;13.00;67.30;;;;;;5051849;28;20117;-71
2020/12/23 02:27:31;;;;;;;6.35;4.15;;;13.00;67.30;;;;;;5052066;28;20025;-71
2020/12/23 02:29:59;;;;;;;4.60;3.50;;;13.00;67.30;;;;;;5051722;28;20064;-71
2020/12/23 02:32:26;;;;;;;4.70;3.17;;;13.00;67.40;;;;;;5051779;28;20028;-71
2020/12/23 02:34:52;;;;;;;4.97;3.88;;;13.00;67.50;;;;;;5052817;28;20028;-71
2020/12/23 02:37:19;;;;;;;5.78;4.28;;;13.00;67.50;;;;;;5055295;28;20189;-71
2020/12/23 02:39:55;;;;;;;6.07;4.20;;;13.00;67.50;;;;;;5053672;28;20363;-71
2020/12/23 02:42:23;;;;;;;5.05;3.35;;;13.00;67.60;;;;;;5055309;28;20135;-71
2020/12/23 02:44:50;;;;;;;7.63;4.55;;;13.00;67.50;;;;;;5050607;28;20477;-71
2020/12/23 02:47:18;;;;;;;7.20;4.35;;;13.00;67.30;;;;;;5041932;28;20167;-71
2020/12/23 02:49:44;;;;;;;5.13;3.95;;;12.90;67.20;;;;;;5055016;28;20494;-71
2020/12/23 02:52:11;;;;;;;6.00;3.53;;;12.90;67.10;;;;;;5054805;28;20035;-71
2020/12/23 02:54:37;;;;;;;4.63;3.35;;;12.90;66.90;;;;;;5054795;28;20033;-70
2020/12/23 02:57:04;;;;;;;4.80;3.60;;;12.90;66.90;;;;;;5055154;28;20112;-72
2020/12/23 02:59:30;;;;;;;8.13;3.80;;;12.80;66.80;;;;;;5054659;28;20102;-71
2020/12/23 03:01:56;;;;;;;5.35;3.17;;;12.80;67.00;;;;;;5054911;28;20057;-71
2020/12/23 03:04:21;;;;;;;3.65;3.08;;;12.80;67.20;;;;;;5054770;28;20069;-71
2020/12/23 03:06:47;;;;;;;4.60;3.35;;;12.80;67.40;;;;;;5053541;28;20091;-71
2020/12/23 03:09:13;;;;;;;4.82;3.53;;;12.80;67.40;;;;;;5054534;28;20100;-71
2020/12/23 03:11:40;;;;;;;5.60;3.75;;;12.80;67.50;;;;;;5054746;28;20071;-71
2020/12/23 03:14:06;;;;;;;4.85;3.28;;;12.80;67.60;;;;;;5054697;28;20128;-71
2020/12/23 03:16:32;;;;;;;4.40;3.70;;;12.80;67.50;;;;;;5054654;28;20029;-71
2020/12/23 03:18:58;;;;;;;8.35;3.47;;;12.80;67.80;;;;;;5054479;28;20494;-71
2020/12/23 03:21:24;;;;;;;4.82;3.38;;;12.80;67.70;;;;;;5054681;28;20056;-71
2020/12/23 03:23:50;;;;;;;4.97;3.30;;;12.80;67.70;;;;;;5054543;28;20068;-71
2020/12/23 03:26:16;;;;;;;4.32;3.35;;;12.80;67.90;;;;;;5053174;28;20041;-71
2020/12/23 03:28:42;;;;;;;6.15;4.47;;;12.80;68.00;;;;;;5054218;28;20037;-71
2020/12/23 03:31:08;;;;;;;4.43;3.20;;;12.90;68.20;;;;;;5053243;28;20029;-71
2020/12/23 03:33:34;;;;;;;5.43;3.50;;;12.90;68.10;;;;;;5054282;28;20036;-71
2020/12/23 03:36:00;;;;;;;5.20;3.30;;;12.90;68.20;;;;;;5054675;28;20378;-71
2020/12/23 03:38:26;;;;;;;5.82;3.30;;;13.00;68.20;;;;;;5053006;28;20017;-71
2020/12/23 03:40:53;;;;;;;3.40;2.85;;;13.00;68.20;;;;;;5054313;28;20085;-71
2020/12/23 03:43:19;;;;;;;4.40;2.67;;;13.00;68.10;;;;;;5052520;28;20052;-71
2020/12/23 03:45:45;;;;;;;4.15;2.75;;;13.10;68.10;;;;;;5034163;28;20383;-71
2020/12/23 03:48:11;;;;;;;4.20;3.10;;;13.10;68.00;;;;;;5039720;28;20032;-71
2020/12/23 03:50:36;;;;;;;4.53;2.95;;;13.10;67.90;;;;;;5054148;28;20112;-71
2020/12/23 03:53:02;;;;;;;7.55;3.00;;;13.20;67.90;;;;;;5053770;28;20029;-71
2020/12/23 03:55:28;;;;;;;4.82;3.15;;;13.10;67.70;;;;;;5052692;28;20029;-71
2020/12/23 03:57:54;;;;;;;6.10;3.25;;;13.20;67.70;;;;;;5053589;28;20040;-71
2020/12/23 04:00:20;;;;;;;4.78;2.60;;;13.20;67.80;;;;;;5053888;28;20473;-71
2020/12/23 04:02:46;;;;;;;5.18;3.50;;;13.20;67.90;;;;;;5053518;28;20044;-71
2020/12/23 04:05:12;;;;;;;4.75;2.78;;;13.20;67.70;;;;;;5052490;28;20021;-71
2020/12/23 04:07:38;;;;;;;3.35;2.50;;;13.20;67.60;;;;;;5053744;28;20059;-71
2020/12/23 04:10:06;;;;;;;5.57;3.53;;;13.20;67.70;;;;;;5053766;28;20029;-71
2020/12/23 04:12:32;;;;;;;13.32;5.35;;;13.20;67.80;;;;;;5053275;28;20108;-71
2020/12/23 04:14:58;;;;;;;9.25;5.90;;;13.20;67.60;;;;;;5052442;28;20033;-71
2020/12/23 04:17:23;;;;;;;5.13;3.15;;;13.20;67.50;;;;;;5053388;28;20543;-71
2020/12/23 04:19:49;;;;;;;3.30;2.53;;;13.10;67.30;;;;;;5053413;28;20079;-71
2020/12/23 04:22:16;;;;;;;3.15;2.45;;;13.10;67.20;;;;;;5054031;28;20136;-71
2020/12/23 04:24:42;;;;;;;5.68;3.42;;;13.00;67.20;;;;;;5053844;28;20033;-71
2020/12/23 04:27:07;;;;;;;4.03;2.95;;;13.00;67.10;;;;;;5054299;28;20108;-71
2020/12/23 04:29:33;;;;;;;3.47;2.40;;;12.90;66.90;;;;;;5054708;28;20028;-71
2020/12/23 04:31:59;;;;;;;3.67;2.40;;;12.80;66.80;;;;;;5053813;28;20025;-71
2020/12/23 04:34:24;;;;;;;7.03;3.28;;;12.70;66.90;;;;;;5054061;28;20100;-71
2020/12/23 04:36:50;;;;;;;5.00;3.03;;;12.70;67.20;;;;;;5054346;28;20049;-71
2020/12/23 04:39:16;;;;;;;4.15;3.03;;;12.60;67.50;;;;;;5054006;28;20159;-71
2020/12/23 04:41:42;;;;;;;5.10;3.35;;;12.60;67.80;;;;;;5053685;28;20033;-71
2020/12/23 04:44:07;;;;;;;3.70;2.63;;;12.60;68.10;;;;;;5054179;28;20076;-71
2020/12/23 04:46:41;;;;;;;7.03;2.38;;;12.50;68.00;;;;;;5053888;28;20021;-71
2020/12/23 04:49:08;;;;;;;4.68;2.90;;;12.50;68.00;;;;;;5052609;28;20030;-71
2020/12/23 04:51:36;;;;;;;3.85;2.92;;;12.50;68.30;;;;;;5052100;28;20036;-71
2020/12/23 04:54:05;;;;;;;3.92;3.00;;;12.50;68.40;;;;;;5053719;28;20027;-71
2020/12/23 04:56:32;;;;;;;2.70;2.30;;;12.50;68.80;;;;;;5052416;28;20025;-72
2020/12/23 04:59:00;;;;;;;2.25;1.95;;;12.50;69.00;;;;;;5051856;28;20032;-71
2020/12/23 05:01:27;;;;;;;5.07;2.90;;;12.50;69.00;;;;;;5052232;28;20509;-71
2020/12/23 05:03:53;;;;;;;6.60;3.17;;;12.50;69.20;;;;;;5052788;28;20037;-71
2020/12/23 05:06:20;;;;;;;4.13;2.30;;;12.50;69.40;;;;;;5067740;28;20025;-71
2020/12/23 05:08:46;;;;;;;4.55;2.75;;;12.60;69.30;;;;;;5052896;28;20017;-71
2020/12/23 05:11:13;;;;;;;3.33;2.35;;;12.60;69.30;;;;;;5056803;28;20028;-71
2020/12/23 05:13:39;;;;;;;4.22;3.08;;;12.60;69.10;;;;;;5053427;28;20414;-71
2020/12/23 05:16:06;;;;;;;4.43;2.92;;;12.60;69.00;;;;;;5053440;28;20021;-71
2020/12/23 05:18:34;;;;;;;3.70;2.90;;;12.60;68.90;;;;;;5052196;28;20410;-71
2020/12/23 05:21:01;;;;;;;6.50;4.10;;;12.60;68.90;;;;;;5053205;28;20032;-71
2020/12/23 05:23:31;;;;;;;4.60;3.50;;;12.70;69.00;;;;;;5053262;28;20470;-71
2020/12/23 05:26:07;;;;;;;9.88;4.68;;;12.60;69.00;;;;;;5053205;28;20128;-71
2020/12/23 05:28:33;;;;;;;6.63;3.90;;;12.60;68.90;;;;;;5053291;28;20021;-71
2020/12/23 05:31:19;;;;;;;90.00;37.80;;;12.60;68.70;;;;;;5052961;28;20051;-71
2020/12/23 05:33:47;;;;;;;155.15;66.00;;;12.60;68.60;;;;;;5053274;28;20509;-71
2020/12/23 05:36:15;;;;;;;81.82;36.50;;;12.60;68.30;;;;;;5053218;28;20386;-71
2020/12/23 05:38:42;;;;;;;50.03;24.25;;;12.60;68.20;;;;;;5053270;28;20037;-71
2020/12/23 05:41:12;;;;;;;23.77;9.98;;;12.60;68.10;;;;;;5053060;28;20163;-71
2020/12/23 05:43:38;;;;;;;8.00;5.13;;;12.50;68.20;;;;;;5053126;28;20023;-71
2020/12/23 05:46:09;;;;;;;14.18;4.18;;;12.50;68.40;;;;;;5053148;28;20025;-71
2020/12/23 05:48:37;;;;;;;13.05;6.20;;;12.50;68.60;;;;;;5053098;28;20486;-71
2020/12/23 05:51:05;;;;;;;17.13;9.27;;;12.50;68.80;;;;;;5053042;28;20029;-71
2020/12/23 05:53:36;;;;;;;12.50;7.10;;;12.50;68.90;;;;;;5051553;28;20033;-71
2020/12/23 05:56:05;;;;;;;14.95;8.52;;;12.50;68.90;;;;;;5053289;28;20059;-71
2020/12/23 05:58:33;;;;;;;11.15;5.80;;;12.50;68.80;;;;;;5051622;28;20474;-71
2020/12/23 06:01:01;;;;;;;11.95;5.90;;;12.50;68.60;;;;;;5052640;28;20040;-71
2020/12/23 06:03:52;;;;;;;8.13;4.28;;;12.50;68.50;;;;;;5053138;28;20103;-71
2020/12/23 06:06:25;;;;;;;7.68;3.95;;;12.50;68.40;;;;;;5053041;28;20155;-71
2020/12/23 06:08:59;;;;;;;5.13;3.33;;;12.50;68.50;;;;;;5052619;28;20497;-71
2020/12/23 06:11:37;;;;;;;7.88;3.38;;;12.50;68.60;;;;;;5056105;28;20033;-71
2020/12/23 06:14:07;;;;;;;7.03;3.65;;;12.50;68.80;;;;;;5056804;28;20112;-71
2020/12/23 06:16:39;;;;;;;4.82;2.40;;;12.50;68.80;;;;;;5057014;28;20036;-71
2020/12/23 06:19:10;;;;;;;4.18;2.60;;;12.50;69.00;;;;;;5056844;28;20024;-71
2020/12/23 06:21:36;;;;;;;4.78;2.95;;;12.50;69.00;;;;;;5056354;28;20021;-71
2020/12/23 06:24:06;;;;;;;7.00;2.88;;;12.60;69.10;;;;;;5056417;28;20394;-71
2020/12/23 06:26:35;;;;;;;3.92;2.40;;;12.60;69.00;;;;;;5056258;28;20170;-71
2020/12/23 06:29:04;;;;;;;5.03;2.47;;;12.60;69.00;;;;;;5056457;28;20096;-71
2020/12/23 06:31:42;;;;;;;3.83;2.55;;;12.70;69.10;;;;;;5055002;28;20025;-71
2020/12/23 06:34:16;;;;;;;5.22;2.45;;;12.70;69.00;;;;;;5056280;28;20100;-71
2020/12/23 06:36:43;;;;;;;3.92;2.60;;;12.70;68.90;;;;;;5056286;28;20025;-71
2020/12/23 06:39:22;;;;;;;7.50;3.35;;;12.80;68.80;;;;;;5056250;28;20029;-71
2020/12/23 06:42:00;;;;;;;3.58;2.70;;;12.80;68.50;;;;;;5056114;28;20019;-71
2020/12/23 06:44:44;;;;;;;4.78;2.78;;;12.80;68.30;;;;;;5056138;28;20092;-71
2020/12/23 06:47:11;;;;;;;;;;;12.80;68.10;;;;;;5057115;28;20411;-71
2020/12/23 06:49:48;;;;;;;5.22;2.40;;;12.80;68.10;;;;;;5056306;28;19908;-71
2020/12/23 06:52:23;;;;;;;4.38;2.70;;;12.80;67.90;;;;;;5056558;28;20049;-71
2020/12/23 06:55:08;;;;;;;4.38;2.72;;;12.80;68.10;;;;;;5055967;28;20074;-71
2020/12/23 06:57:39;;;;;;;3.97;2.97;;;12.80;69.00;;;;;;5056258;28;20028;-71
2020/12/23 07:00:20;;;;;;;3.03;2.40;;;12.70;68.10;;;;;;5057437;28;20028;-72
2020/12/23 07:02:50;;;;;;;5.97;3.33;;;12.80;68.00;;;;;;5048244;28;20386;-71
2020/12/23 07:05:21;;;;;;;8.20;3.92;;;12.80;67.90;;;;;;5053448;28;20021;-71
2020/12/23 07:07:51;;;;;;;6.43;3.50;;;12.80;67.80;;;;;;5055155;28;20072;-71
2020/12/23 07:10:19;;;;;;;8.85;3.20;;;12.80;68.00;;;;;;5068151;28;20077;-71
2020/12/23 07:12:52;;;;;;;11.95;4.65;;;12.80;68.10;;;;;;5074382;28;20024;-71
2020/12/23 07:15:25;;;;;;;9.77;5.03;;;12.80;68.10;;;;;;5075612;28;20095;-71
2020/12/23 07:18:03;;;;;;;7.15;3.78;;;12.80;68.00;;;;;;5075529;28;20059;-71
2020/12/23 07:20:33;;;;;;;6.40;3.97;;;12.80;68.10;;;;;;5075348;28;20029;-72
2020/12/23 07:23:04;;;;;;;7.65;4.95;;;12.80;68.20;;;;;;5074095;28;20036;-71
2020/12/23 07:25:35;;;;;;;10.60;4.47;;;12.80;68.20;;;;;;5075206;28;20119;-71
2020/12/23 07:28:03;;;;;;;6.57;3.55;;;12.90;68.20;;;;;;5075655;28;20146;-71
2020/12/23 07:30:29;;;;;;;6.10;2.47;;;12.90;68.10;;;;;;5071267;28;20013;-72
2020/12/23 07:33:07;;;;;;;5.85;2.90;;;12.90;68.20;;;;;;5055229;28;20029;-71
2020/12/23 07:35:33;;;;;;;8.00;3.25;;;12.90;68.20;;;;;;5070652;28;20429;-71
2020/12/23 07:38:00;;;;;;;4.72;3.03;;;12.90;68.30;;;;;;5062084;28;20036;-71
2020/12/23 07:40:28;;;;;;;5.05;3.28;;;13.00;68.50;;;;;;5075374;28;20021;-71
2020/12/23 07:42:56;;;;;;;6.68;3.15;;;13.00;68.60;;;;;;5075261;28;20121;-71
2020/12/23 07:45:22;;;;;;;4.95;3.10;;;13.00;68.70;;;;;;5075029;28;20024;-71
2020/12/23 07:47:58;;;;;;;4.10;2.90;;;13.10;68.80;;;;;;5074897;28;20016;-71
2020/12/23 07:50:25;;;;;;;5.45;3.10;;;13.10;68.70;;;;;;5073652;28;20031;-71
2020/12/23 07:52:51;;;;;;;5.93;4.30;;;13.20;68.70;;;;;;5074805;28;20050;-71
2020/12/23 07:55:22;;;;;;;3.97;3.20;;;13.20;68.60;;;;;;5074835;28;20025;-72
2020/12/23 07:57:53;;;;;;;5.93;3.88;;;13.20;68.50;;;;;;5073502;28;20028;-71
2020/12/23 08:00:21;;;;;;;6.07;3.42;;;13.30;68.40;;;;;;5074688;28;20024;-71
2020/12/23 08:02:48;;;;;;;4.53;3.15;;;13.30;68.20;;;;;;5072825;28;20029;-71
2020/12/23 08:05:14;;;;;;;4.70;3.17;;;13.40;68.30;;;;;;5068054;28;20048;-71
2020/12/23 08:07:44;;;;;;;8.15;3.05;;;13.40;68.10;;;;;;5054539;28;20047;-71
2020/12/23 08:10:16;;;;;;;5.03;3.40;;;13.40;68.00;;;;;;5054797;28;20025;-71
2020/12/23 08:12:50;;;;;;;10.40;3.45;;;13.40;67.90;;;;;;5054683;28;20028;-71
2020/12/23 08:15:16;;;;;;;6.95;3.17;;;13.50;67.80;;;;;;5054460;28;20108;-72
2020/12/23 08:17:42;;;;;;;7.43;3.40;;;13.50;67.70;;;;;;5053111;28;20120;-71
2020/12/23 08:20:13;;;;;;;4.20;3.00;;;13.50;67.60;;;;;;5054369;28;20550;-71
2020/12/23 08:22:43;;;;;;;4.30;3.08;;;13.50;67.30;;;;;;5054750;28;20064;-72
2020/12/23 08:25:16;;;;;;;4.80;3.00;;;13.50;67.30;;;;;;5067019;28;20039;-71
2020/12/23 08:27:45;;;;;;;5.20;3.10;;;13.50;67.30;;;;;;5072856;28;20535;-71
2020/12/23 08:30:16;;;;;;;5.88;3.55;;;13.60;67.60;;;;;;5074339;28;20032;-72
2020/12/23 08:32:57;;;;;;;5.95;3.35;;;13.60;67.80;;;;;;5073257;28;20029;-71
2020/12/23 08:35:39;;;;;;;7.45;4.00;;;13.70;68.10;;;;;;5073201;28;20393;-72
2020/12/23 08:38:16;;;;;;;4.00;2.58;;;13.80;67.80;;;;;;5074564;28;20099;-71
2020/12/23 08:41:00;;;;;;;5.65;3.30;;;13.90;67.50;;;;;;5074705;28;20039;-71
2020/12/23 08:43:28;;;;;;;7.70;4.05;;;13.90;67.00;;;;;;5074338;28;20031;-71
2020/12/23 08:45:58;;;;;;;6.65;3.80;;;14.00;67.00;;;;;;5073928;28;20048;-72
2020/12/23 08:48:27;;;;;;;7.38;4.00;;;13.90;66.90;;;;;;5073814;28;20024;-72
2020/12/23 08:50:58;;;;;;;5.45;2.90;;;13.90;66.60;;;;;;5073801;28;20021;-71
2020/12/23 08:53:34;;;;;;;4.88;3.45;;;13.90;66.60;;;;;;5071836;28;20032;-71
2020/12/23 08:56:00;;;;;;;4.18;2.95;;;13.90;66.90;;;;;;5063557;28;20032;-71
2020/12/23 08:58:26;;;;;;;3.42;2.53;;;13.90;67.10;;;;;;5053472;28;20031;-72
2020/12/23 09:01:02;;;;;;;5.68;2.92;;;13.90;67.40;;;;;;5052272;28;20040;-72
2020/12/23 09:03:29;;;;;;;11.07;3.33;;;14.00;67.90;;;;;;5053384;28;20079;-71
2020/12/23 09:05:58;;;;;;;5.13;3.42;;;14.00;68.30;;;;;;5053546;28;20024;-72
2020/12/23 09:08:26;;;;;;;5.25;3.00;;;14.10;68.50;;;;;;5053283;28;20017;-72
2020/12/23 09:10:56;;;;;;;14.07;6.05;;;14.20;68.60;;;;;;5053436;28;20017;-72
2020/12/23 09:13:30;;;;;;;16.70;8.60;;;14.40;68.50;;;;;;5053926;28;20170;-72
2020/12/23 09:15:57;;;;;;;;;;;14.50;68.30;;;;;;5053855;28;20100;-72
2020/12/23 09:18:22;;;;;;;22.10;11.50;;;14.60;68.30;;;;;;5053301;28;20378;-72
2020/12/23 09:20:57;;;;;;;15.18;8.57;;;14.70;68.20;;;;;;5051829;28;20064;-72
2020/12/23 09:23:23;;;;;;;9.77;5.43;;;14.80;67.90;;;;;;5053462;28;20064;-72
2020/12/23 09:25:49;;;;;;;8.18;4.97;;;14.90;67.70;;;;;;5053245;28;20095;-72
2020/12/23 09:28:15;;;;;;;21.08;11.15;;;15.00;67.60;;;;;;5060329;28;20380;-72
2020/12/23 09:30:49;;;;;;;20.17;10.85;;;15.10;67.20;;;;;;5071968;28;20150;-72
2020/12/23 09:33:21;;;;;;;14.18;8.45;;;15.10;66.90;;;;;;5073174;28;20024;-72
2020/12/23 09:35:52;;;;;;;12.27;7.75;;;15.20;67.00;;;;;;5073495;28;20493;-72
2020/12/23 09:38:34;;;;;;;8.32;4.95;;;15.30;66.80;;;;;;5073523;28;20056;-72
2020/12/23 09:41:00;;;;;;;4.80;3.15;;;15.30;67.10;;;;;;5071957;28;20024;-72
2020/12/23 09:43:32;;;;;;;6.88;4.25;;;15.40;66.00;;;;;;5054964;28;20033;-72
2020/12/23 09:46:08;;;;;;;10.43;5.75;;;15.40;65.60;;;;;;5055960;28;20417;-72
2020/12/23 09:48:34;;;;;;;6.78;4.45;;;15.50;65.50;;;;;;5057461;28;20026;-72
2020/12/23 09:51:00;;;;;;;11.30;5.45;;;15.50;65.70;;;;;;5057171;28;20025;-71
2020/12/23 09:53:27;;;;;;;8.50;4.93;;;15.50;65.50;;;;;;5072568;28;20037;-72
2020/12/23 09:55:53;;;;;;;11.70;5.88;;;15.60;65.40;;;;;;5057243;28;20028;-72
2020/12/23 09:58:19;;;;;;;8.95;5.18;;;15.60;65.30;;;;;;5057021;28;20588;-72
2020/12/23 10:00:47;;;;;;;4.60;3.55;;;15.60;65.10;;;;;;5073367;28;20123;-72
2020/12/23 10:03:13;;;;;;;7.60;4.30;;;15.70;65.20;;;;;;5065115;28;20453;-72
2020/12/23 10:05:39;;;;;;;8.30;4.20;;;15.70;65.30;;;;;;5057152;28;20049;-72
2020/12/23 10:08:06;;;;;;;5.05;3.25;;;15.70;65.50;;;;;;5074467;28;20482;-71
2020/12/23 10:10:32;;;;;;;5.30;3.40;;;15.80;65.60;;;;;;5076812;28;20381;-71
2020/12/23 10:12:58;;;;;;;3.53;2.80;;;15.90;65.40;;;;;;5076788;28;20056;-71
2020/12/23 10:15:24;;;;;;;5.13;3.13;;;16.00;65.40;;;;;;5076680;28;20029;-71
2020/12/23 10:17:50;;;;;;;4.07;2.63;;;16.00;65.00;;;;;;5076693;28;20493;-72
2020/12/23 10:20:16;;;;;;;7.03;3.45;;;16.10;64.80;;;;;;5076865;28;20054;-72
2020/12/23 10:22:42;;;;;;;5.25;2.78;;;16.20;64.60;;;;;;5076480;28;20053;-71
2020/12/23 10:25:09;;;;;;;7.40;2.90;;;16.20;64.40;;;;;;5067623;28;20045;-71
2020/12/23 10:27:35;;;;;;;5.82;2.65;;;16.30;64.50;;;;;;5056583;28;20021;-71
2020/12/23 10:30:03;;;;;;;4.97;3.05;;;16.30;64.40;;;;;;5055238;28;20496;-71
2020/12/23 10:32:29;;;;;;;5.82;3.80;;;16.40;64.40;;;;;;5056344;28;20112;-71
2020/12/23 10:34:55;;;;;;;6.85;3.75;;;16.40;64.30;;;;;;5051820;28;20037;-71
2020/12/23 10:37:22;;;;;;;5.70;3.70;;;16.50;64.10;;;;;;5051710;28;20037;-72
2020/12/23 10:39:49;;;;;;;7.00;4.35;;;16.50;63.60;;;;;;5036165;28;20030;-72
2020/12/23 10:42:15;;;;;;;6.20;3.55;;;16.50;63.00;;;;;;5036224;28;20057;-72
2020/12/23 10:44:42;;;;;;;8.23;3.38;;;16.50;62.90;;;;;;5038144;28;20348;-71
2020/12/23 10:47:08;;;;;;;7.68;4.35;;;16.50;62.90;;;;;;5056005;28;20033;-72
2020/12/23 10:49:33;;;;;;;6.05;3.67;;;16.50;62.90;;;;;;5059437;28;20028;-72
2020/12/23 10:51:59;;;;;;;5.95;3.40;;;16.50;62.90;;;;;;5055601;28;20044;-72
2020/12/23 10:54:26;;;;;;;10.85;4.63;;;16.40;62.70;;;;;;5055891;28;20017;-72
2020/12/23 10:56:52;;;;;;;10.80;5.65;;;16.40;62.60;;;;;;5053840;28;20029;-72
2020/12/23 10:59:18;;;;;;;10.52;6.03;;;16.40;62.50;;;;;;5055955;28;20178;-72
2020/12/23 11:01:44;;;;;;;16.55;7.13;;;16.30;62.40;;;;;;5058899;28;20036;-73
2020/12/23 11:04:10;;;;;;;8.45;5.30;;;16.20;62.40;;;;;;5055512;28;20490;-72
2020/12/23 11:06:36;;;;;;;7.90;5.30;;;16.10;62.60;;;;;;5055693;28;20044;-72
2020/12/23 11:09:03;;;;;;;9.40;5.70;;;16.00;62.80;;;;;;5057984;28;20032;-72
2020/12/23 11:11:30;;;;;;;12.93;5.47;;;16.00;63.10;;;;;;5070699;28;20023;-72
2020/12/23 11:13:55;;;;;;;9.18;4.30;;;15.90;63.40;;;;;;5058744;28;20458;-73
2020/12/23 11:16:21;;;;;;;8.93;4.32;;;15.90;63.60;;;;;;5055405;28;20056;-72
2020/12/23 11:18:48;;;;;;;5.97;4.30;;;15.80;63.90;;;;;;5063237;28;20056;-72
2020/12/23 11:21:14;;;;;;;9.68;5.22;;;15.80;64.00;;;;;;5069239;28;20024;-72
2020/12/23 11:23:41;;;;;;;7.15;5.72;;;15.80;63.90;;;;;;5062637;28;20029;-72
2020/12/23 11:26:18;;;;;;;5.78;4.53;;;15.80;64.00;;;;;;5054957;28;20395;-71
2020/12/23 11:28:44;;;;;;;8.10;3.85;;;15.70;64.00;;;;;;5060245;28;20020;-71
2020/12/23 11:31:12;;;;;;;6.97;3.47;;;15.80;64.10;;;;;;5057500;28;20109;-71
2020/12/23 11:33:38;;;;;;;7.35;5.20;;;15.70;64.20;;;;;;5064799;28;20028;-71
2020/12/23 11:36:03;;;;;;;5.97;4.72;;;15.70;64.50;;;;;;5073441;28;20108;-72
2020/12/23 11:38:30;;;;;;;6.43;3.78;;;15.70;64.80;;;;;;5074972;28;20021;-72
2020/12/23 11:40:56;;;;;;;5.53;4.10;;;15.80;64.90;;;;;;5059996;28;20104;-73
2020/12/23 11:43:22;;;;;;;12.85;4.00;;;15.80;64.90;;;;;;5054804;28;20112;-71
2020/12/23 11:45:47;;;;;;;5.45;3.80;;;15.90;65.00;;;;;;5047225;28;20040;-72
2020/12/23 11:48:13;;;;;;;5.65;3.85;;;15.90;65.00;;;;;;5051016;28;20017;-71
2020/12/23 11:50:39;;;;;;;5.30;3.55;;;16.00;65.00;;;;;;5068339;28;20381;-72
2020/12/23 11:53:04;;;;;;;7.63;3.90;;;16.00;65.10;;;;;;5048382;28;20061;-72
2020/12/23 11:55:31;;;;;;;4.55;3.63;;;16.10;65.10;;;;;;5034093;28;20544;-72
2020/12/23 11:57:57;;;;;;;5.75;3.38;;;16.20;65.10;;;;;;5046081;28;20470;-72
2020/12/23 12:00:23;;;;;;;4.55;3.42;;;16.30;64.70;;;;;;5052613;28;20040;-72
2020/12/23 12:02:49;;;;;;;5.65;3.88;;;16.30;64.00;;;;;;5042499;28;20079;-72
2020/12/23 12:05:15;;;;;;;5.95;4.10;;;16.30;63.10;;;;;;5047619;28;20029;-71
2020/12/23 12:07:40;;;;;;;5.20;4.00;;;16.30;62.80;;;;;;5033905;28;20033;-73
2020/12/23 12:10:08;;;;;;;5.47;3.70;;;16.20;62.70;;;;;;5053636;28;20039;-71
2020/12/23 12:12:34;;;;;;;10.50;4.88;;;16.10;62.80;;;;;;5053577;28;20036;-72
2020/12/23 12:15:01;;;;;;;6.97;4.25;;;16.10;63.20;;;;;;5034975;28;20104;-71
2020/12/23 12:17:26;;;;;;;5.05;3.60;;;16.00;63.60;;;;;;5040618;28;20083;-72
2020/12/23 12:19:53;;;;;;;7.95;3.25;;;16.00;63.80;;;;;;5056980;28;20021;-72
2020/12/23 12:22:19;;;;;;;7.68;3.55;;;16.00;63.80;;;;;;5052058;28;20442;-72
2020/12/23 12:24:45;;;;;;;5.03;3.60;;;16.00;63.80;;;;;;5053165;28;20128;-72
2020/12/23 12:27:11;;;;;;;4.45;3.67;;;16.00;64.00;;;;;;5052805;28;20031;-71
2020/12/23 12:29:37;;;;;;;6.05;4.00;;;16.00;64.30;;;;;;5054816;28;20102;-71
2020/12/23 12:32:03;;;;;;;4.72;3.88;;;16.00;64.20;;;;;;5066431;28;20025;-72
2020/12/23 12:34:29;;;;;;;7.20;3.90;;;16.10;64.30;;;;;;5062890;28;20480;-72
2020/12/23 12:36:56;;;;;;;4.35;3.58;;;16.00;64.10;;;;;;5051766;28;20025;-72
2020/12/23 12:39:22;;;;;;;5.10;3.15;;;16.10;64.10;;;;;;5051880;28;20044;-71
2020/12/23 12:41:48;;;;;;;5.70;3.42;;;16.10;64.10;;;;;;5050603;28;20086;-73
2020/12/23 12:44:14;;;;;;;3.67;3.22;;;16.10;64.20;;;;;;5050646;28;20078;-72
2020/12/23 12:46:40;;;;;;;4.78;3.40;;;16.10;64.30;;;;;;5050226;28;20419;-72
2020/12/23 12:49:06;;;;;;;3.92;3.33;;;16.10;64.50;;;;;;5047520;28;20029;-72